sensor_id;sensor_type;location;lat;lon;timestamp;temperature;humidity
64918;HTU21D;52176;44.858;38.372;2022-11-20T00:00:50;10.26;85.96
64918;HTU21D;52176;44.858;38.372;2022-11-20T00:03:16;10.16;85.97
64918;HTU21D;52176;44.858;38.372;2022-11-20T00:05:43;10.05;85.99
64918;HTU21D;52176;44.858;38.372;2022-11-20T00:08:08;9.95;86.06
64918;HTU21D;52176;44.858;38.372;2022-11-20T00:10:38;9.86;86.11
64918;HTU21D;52176;44.858;38.372;2022-11-20T00:13:04;9.79;86.19
64918;HTU21D;52176;44.858;38.372;2022-11-20T00:15:30;9.74;86.18
64918;HTU21D;52176;44.858;38.372;2022-11-20T00:17:55;9.69;86.20
64918;HTU21D;52176;44.858;38.372;2022-11-20T00:20:21;9.68;86.25
64918;HTU21D;52176;44.858;38.372;2022-11-20T00:22:47;9.68;86.24
64918;HTU21D;52176;44.858;38.372;2022-11-20T00:25:13;9.70;86.21
64918;HTU21D;52176;44.858;38.372;2022-11-20T00:27:38;9.72;86.15
64918;HTU21D;52176;44.858;38.372;2022-11-20T00:30:05;9.77;86.08
64918;HTU21D;52176;44.858;38.372;2022-11-20T00:32:31;9.80;86.05
64918;HTU21D;52176;44.858;38.372;2022-11-20T00:34:57;9.83;85.98
64918;HTU21D;52176;44.858;38.372;2022-11-20T00:37:23;9.89;85.88
64918;HTU21D;52176;44.858;38.372;2022-11-20T00:39:49;9.92;85.82
64918;HTU21D;52176;44.858;38.372;2022-11-20T00:42:15;9.96;85.76
64918;HTU21D;52176;44.858;38.372;2022-11-20T00:44:40;10.00;85.70
64918;HTU21D;52176;44.858;38.372;2022-11-20T00:47:06;10.05;85.61
64918;HTU21D;52176;44.858;38.372;2022-11-20T00:49:32;10.08;85.58
64918;HTU21D;52176;44.858;38.372;2022-11-20T00:51:58;10.11;85.52
64918;HTU21D;52176;44.858;38.372;2022-11-20T00:54:23;10.15;85.46
64918;HTU21D;52176;44.858;38.372;2022-11-20T00:56:49;10.19;85.41
64918;HTU21D;52176;44.858;38.372;2022-11-20T00:59:15;10.23;85.45
64918;HTU21D;52176;44.858;38.372;2022-11-20T01:01:41;10.25;85.45
64918;HTU21D;52176;44.858;38.372;2022-11-20T01:04:06;10.28;85.46
64918;HTU21D;52176;44.858;38.372;2022-11-20T01:06:34;10.30;85.59
64918;HTU21D;52176;44.858;38.372;2022-11-20T01:09:01;10.34;85.77
64918;HTU21D;52176;44.858;38.372;2022-11-20T01:11:28;10.38;85.67
64918;HTU21D;52176;44.858;38.372;2022-11-20T01:13:54;10.40;85.55
64918;HTU21D;52176;44.858;38.372;2022-11-20T01:16:21;10.42;85.50
64918;HTU21D;52176;44.858;38.372;2022-11-20T01:18:49;10.45;85.47
64918;HTU21D;52176;44.858;38.372;2022-11-20T01:21:16;10.49;85.42
64918;HTU21D;52176;44.858;38.372;2022-11-20T01:23:42;10.53;85.36
64918;HTU21D;52176;44.858;38.372;2022-11-20T01:26:12;10.54;85.35
64918;HTU21D;52176;44.858;38.372;2022-11-20T01:28:39;10.57;85.27
64918;HTU21D;52176;44.858;38.372;2022-11-20T01:31:17;10.59;85.30
64918;HTU21D;52176;44.858;38.372;2022-11-20T01:33:45;10.62;85.23
64918;HTU21D;52176;44.858;38.372;2022-11-20T01:36:12;10.63;85.24
64918;HTU21D;52176;44.858;38.372;2022-11-20T01:38:38;10.63;85.23
64918;HTU21D;52176;44.858;38.372;2022-11-20T01:41:05;10.66;85.22
64918;HTU21D;52176;44.858;38.372;2022-11-20T01:43:31;10.67;85.19
64918;HTU21D;52176;44.858;38.372;2022-11-20T01:48:27;10.68;85.17
64918;HTU21D;52176;44.858;38.372;2022-11-20T01:50:54;10.69;85.14
64918;HTU21D;52176;44.858;38.372;2022-11-20T01:53:21;10.68;85.17
64918;HTU21D;52176;44.858;38.372;2022-11-20T01:55:49;10.67;85.17
64918;HTU21D;52176;44.858;38.372;2022-11-20T01:58:18;10.69;85.16
64918;HTU21D;52176;44.858;38.372;2022-11-20T02:00:44;10.69;85.18
64918;HTU21D;52176;44.858;38.372;2022-11-20T02:03:11;10.70;85.19
64918;HTU21D;52176;44.858;38.372;2022-11-20T02:05:43;10.72;85.16
64918;HTU21D;52176;44.858;38.372;2022-11-20T02:08:11;10.73;85.16
64918;HTU21D;52176;44.858;38.372;2022-11-20T02:10:37;10.73;85.17
64918;HTU21D;52176;44.858;38.372;2022-11-20T02:13:03;10.74;85.23
64918;HTU21D;52176;44.858;38.372;2022-11-20T02:15:48;10.74;85.28
64918;HTU21D;52176;44.858;38.372;2022-11-20T02:18:14;10.72;85.28
64918;HTU21D;52176;44.858;38.372;2022-11-20T02:20:45;10.72;85.30
64918;HTU21D;52176;44.858;38.372;2022-11-20T02:23:13;10.70;85.30
64918;HTU21D;52176;44.858;38.372;2022-11-20T02:25:40;10.71;85.31
64918;HTU21D;52176;44.858;38.372;2022-11-20T02:28:07;10.69;85.35
64918;HTU21D;52176;44.858;38.372;2022-11-20T02:30:33;10.70;85.35
64918;HTU21D;52176;44.858;38.372;2022-11-20T02:32:58;10.68;85.37
64918;HTU21D;52176;44.858;38.372;2022-11-20T02:37:51;10.63;85.51
64918;HTU21D;52176;44.858;38.372;2022-11-20T02:40:18;10.60;85.56
64918;HTU21D;52176;44.858;38.372;2022-11-20T02:42:44;10.57;85.55
64918;HTU21D;52176;44.858;38.372;2022-11-20T02:45:10;10.55;85.59
64918;HTU21D;52176;44.858;38.372;2022-11-20T02:47:36;10.52;85.61
64918;HTU21D;52176;44.858;38.372;2022-11-20T02:50:02;10.48;85.61
64918;HTU21D;52176;44.858;38.372;2022-11-20T02:52:28;10.44;85.66
64918;HTU21D;52176;44.858;38.372;2022-11-20T02:54:54;10.40;85.67
64918;HTU21D;52176;44.858;38.372;2022-11-20T02:57:20;10.36;85.66
64918;HTU21D;52176;44.858;38.372;2022-11-20T02:59:45;10.31;85.64
64918;HTU21D;52176;44.858;38.372;2022-11-20T03:02:11;10.28;85.77
64918;HTU21D;52176;44.858;38.372;2022-11-20T03:04:37;10.24;85.89
64918;HTU21D;52176;44.858;38.372;2022-11-20T03:07:03;10.23;85.87
64918;HTU21D;52176;44.858;38.372;2022-11-20T03:09:29;10.21;85.86
64918;HTU21D;52176;44.858;38.372;2022-11-20T03:11:55;10.19;85.84
64918;HTU21D;52176;44.858;38.372;2022-11-20T03:14:21;10.13;85.84
64918;HTU21D;52176;44.858;38.372;2022-11-20T03:16:46;10.11;85.86
64918;HTU21D;52176;44.858;38.372;2022-11-20T03:19:12;10.10;85.88
64918;HTU21D;52176;44.858;38.372;2022-11-20T03:21:38;10.11;85.89
64918;HTU21D;52176;44.858;38.372;2022-11-20T03:24:04;10.09;85.86
64918;HTU21D;52176;44.858;38.372;2022-11-20T03:26:30;10.06;85.84
64918;HTU21D;52176;44.858;38.372;2022-11-20T03:28:56;10.03;85.88
64918;HTU21D;52176;44.858;38.372;2022-11-20T03:31:24;10.00;85.85
64918;HTU21D;52176;44.858;38.372;2022-11-20T03:33:50;9.96;85.90
64918;HTU21D;52176;44.858;38.372;2022-11-20T03:36:16;9.94;85.91
64918;HTU21D;52176;44.858;38.372;2022-11-20T03:38:43;9.92;85.93
64918;HTU21D;52176;44.858;38.372;2022-11-20T03:41:13;9.90;85.90
64918;HTU21D;52176;44.858;38.372;2022-11-20T03:43:39;9.89;85.87
64918;HTU21D;52176;44.858;38.372;2022-11-20T03:46:06;9.84;85.86
64918;HTU21D;52176;44.858;38.372;2022-11-20T03:48:31;9.81;85.88
64918;HTU21D;52176;44.858;38.372;2022-11-20T03:53:53;9.71;85.92
64918;HTU21D;52176;44.858;38.372;2022-11-20T03:56:19;9.67;85.93
64918;HTU21D;52176;44.858;38.372;2022-11-20T03:58:46;9.63;85.98
64918;HTU21D;52176;44.858;38.372;2022-11-20T04:01:12;9.62;85.97
64918;HTU21D;52176;44.858;38.372;2022-11-20T04:03:39;9.60;86.00
64918;HTU21D;52176;44.858;38.372;2022-11-20T04:06:05;9.61;85.99
64918;HTU21D;52176;44.858;38.372;2022-11-20T04:08:32;9.64;85.93
64918;HTU21D;52176;44.858;38.372;2022-11-20T04:11:08;9.64;85.93
64918;HTU21D;52176;44.858;38.372;2022-11-20T04:13:34;9.65;85.90
64918;HTU21D;52176;44.858;38.372;2022-11-20T04:15:59;9.67;85.94
64918;HTU21D;52176;44.858;38.372;2022-11-20T04:18:25;9.68;85.93
64918;HTU21D;52176;44.858;38.372;2022-11-20T04:20:51;9.69;85.84
64918;HTU21D;52176;44.858;38.372;2022-11-20T04:23:17;9.71;85.82
64918;HTU21D;52176;44.858;38.372;2022-11-20T04:25:42;9.70;85.77
64918;HTU21D;52176;44.858;38.372;2022-11-20T04:28:08;9.69;85.74
64918;HTU21D;52176;44.858;38.372;2022-11-20T04:30:34;9.69;85.80
64918;HTU21D;52176;44.858;38.372;2022-11-20T04:33:00;9.71;85.89
64918;HTU21D;52176;44.858;38.372;2022-11-20T04:35:26;9.72;85.89
64918;HTU21D;52176;44.858;38.372;2022-11-20T04:37:52;9.74;85.92
64918;HTU21D;52176;44.858;38.372;2022-11-20T04:40:17;9.75;85.87
64918;HTU21D;52176;44.858;38.372;2022-11-20T04:42:43;9.74;85.87
64918;HTU21D;52176;44.858;38.372;2022-11-20T04:45:09;9.77;85.84
64918;HTU21D;52176;44.858;38.372;2022-11-20T04:47:35;9.78;85.80
64918;HTU21D;52176;44.858;38.372;2022-11-20T04:50:01;9.81;85.81
64918;HTU21D;52176;44.858;38.372;2022-11-20T04:52:26;9.85;85.76
64918;HTU21D;52176;44.858;38.372;2022-11-20T04:54:52;9.90;85.75
64918;HTU21D;52176;44.858;38.372;2022-11-20T04:57:19;9.96;85.71
64918;HTU21D;52176;44.858;38.372;2022-11-20T04:59:44;10.04;85.65
64918;HTU21D;52176;44.858;38.372;2022-11-20T05:02:11;10.12;85.60
64918;HTU21D;52176;44.858;38.372;2022-11-20T05:04:37;10.19;85.54
64918;HTU21D;52176;44.858;38.372;2022-11-20T05:07:03;10.24;85.48
64918;HTU21D;52176;44.858;38.372;2022-11-20T05:09:29;10.30;85.44
64918;HTU21D;52176;44.858;38.372;2022-11-20T05:11:55;10.37;85.46
64918;HTU21D;52176;44.858;38.372;2022-11-20T05:14:21;10.43;85.78
64918;HTU21D;52176;44.858;38.372;2022-11-20T05:16:46;10.44;85.67
64918;HTU21D;52176;44.858;38.372;2022-11-20T05:19:12;10.49;85.88
64918;HTU21D;52176;44.858;38.372;2022-11-20T05:21:38;10.51;86.04
64918;HTU21D;52176;44.858;38.372;2022-11-20T05:24:04;10.53;86.25
64918;HTU21D;52176;44.858;38.372;2022-11-20T05:26:30;10.53;86.51
64918;HTU21D;52176;44.858;38.372;2022-11-20T05:28:55;10.55;86.66
64918;HTU21D;52176;44.858;38.372;2022-11-20T05:31:22;10.56;86.51
64918;HTU21D;52176;44.858;38.372;2022-11-20T05:33:48;10.59;87.11
64918;HTU21D;52176;44.858;38.372;2022-11-20T05:36:14;10.66;87.93
64918;HTU21D;52176;44.858;38.372;2022-11-20T05:38:40;10.73;88.17
64918;HTU21D;52176;44.858;38.372;2022-11-20T05:41:10;10.82;89.23
64918;HTU21D;52176;44.858;38.372;2022-11-20T05:43:36;10.93;88.24
64918;HTU21D;52176;44.858;38.372;2022-11-20T05:46:03;11.02;88.60
64918;HTU21D;52176;44.858;38.372;2022-11-20T05:48:30;11.10;88.39
64918;HTU21D;52176;44.858;38.372;2022-11-20T05:50:59;11.16;88.66
64918;HTU21D;52176;44.858;38.372;2022-11-20T05:53:25;11.19;88.65
64918;HTU21D;52176;44.858;38.372;2022-11-20T05:56:01;11.23;88.81
64918;HTU21D;52176;44.858;38.372;2022-11-20T05:58:27;11.24;88.87
64918;HTU21D;52176;44.858;38.372;2022-11-20T06:00:53;11.27;88.18
64918;HTU21D;52176;44.858;38.372;2022-11-20T06:03:19;11.33;88.74
64918;HTU21D;52176;44.858;38.372;2022-11-20T06:05:44;11.36;88.35
64918;HTU21D;52176;44.858;38.372;2022-11-20T06:08:10;11.39;88.31
64918;HTU21D;52176;44.858;38.372;2022-11-20T06:10:36;11.39;88.07
64918;HTU21D;52176;44.858;38.372;2022-11-20T06:13:02;11.41;87.96
64918;HTU21D;52176;44.858;38.372;2022-11-20T06:15:28;11.41;87.98
64918;HTU21D;52176;44.858;38.372;2022-11-20T06:17:54;11.40;87.89
64918;HTU21D;52176;44.858;38.372;2022-11-20T06:20:20;11.41;87.74
64918;HTU21D;52176;44.858;38.372;2022-11-20T06:22:46;11.42;87.70
64918;HTU21D;52176;44.858;38.372;2022-11-20T06:25:12;11.46;87.62
64918;HTU21D;52176;44.858;38.372;2022-11-20T06:27:38;11.47;87.64
64918;HTU21D;52176;44.858;38.372;2022-11-20T06:30:04;11.51;87.64
64918;HTU21D;52176;44.858;38.372;2022-11-20T06:32:30;11.53;87.51
64918;HTU21D;52176;44.858;38.372;2022-11-20T06:34:56;11.56;87.44
64918;HTU21D;52176;44.858;38.372;2022-11-20T06:37:22;11.60;87.77
64918;HTU21D;52176;44.858;38.372;2022-11-20T06:39:47;11.61;87.70
64918;HTU21D;52176;44.858;38.372;2022-11-20T06:42:13;11.60;87.89
64918;HTU21D;52176;44.858;38.372;2022-11-20T06:44:39;11.59;87.77
64918;HTU21D;52176;44.858;38.372;2022-11-20T06:47:05;11.59;87.78
64918;HTU21D;52176;44.858;38.372;2022-11-20T06:49:30;11.58;87.93
64918;HTU21D;52176;44.858;38.372;2022-11-20T06:51:56;11.57;88.02
64918;HTU21D;52176;44.858;38.372;2022-11-20T06:54:22;11.54;87.88
64918;HTU21D;52176;44.858;38.372;2022-11-20T06:56:48;11.54;87.83
64918;HTU21D;52176;44.858;38.372;2022-11-20T06:59:14;11.53;87.70
64918;HTU21D;52176;44.858;38.372;2022-11-20T07:01:40;11.55;87.63
64918;HTU21D;52176;44.858;38.372;2022-11-20T07:04:05;11.56;87.60
64918;HTU21D;52176;44.858;38.372;2022-11-20T07:06:31;11.57;87.55
64918;HTU21D;52176;44.858;38.372;2022-11-20T07:08:57;11.57;87.57
64918;HTU21D;52176;44.858;38.372;2022-11-20T07:11:23;11.57;87.64
64918;HTU21D;52176;44.858;38.372;2022-11-20T07:13:49;11.58;87.54
64918;HTU21D;52176;44.858;38.372;2022-11-20T07:16:15;11.58;87.57
64918;HTU21D;52176;44.858;38.372;2022-11-20T07:18:41;11.61;87.48
64918;HTU21D;52176;44.858;38.372;2022-11-20T07:21:08;11.62;87.42
64918;HTU21D;52176;44.858;38.372;2022-11-20T07:23:34;11.67;87.36
64918;HTU21D;52176;44.858;38.372;2022-11-20T07:26:03;11.70;87.25
64918;HTU21D;52176;44.858;38.372;2022-11-20T07:28:29;11.72;87.16
64918;HTU21D;52176;44.858;38.372;2022-11-20T07:30:55;11.77;87.09
64918;HTU21D;52176;44.858;38.372;2022-11-20T07:33:21;11.83;87.04
64918;HTU21D;52176;44.858;38.372;2022-11-20T07:35:47;11.83;86.98
64918;HTU21D;52176;44.858;38.372;2022-11-20T07:38:12;11.83;87.03
64918;HTU21D;52176;44.858;38.372;2022-11-20T07:40:38;11.84;87.15
64918;HTU21D;52176;44.858;38.372;2022-11-20T07:43:04;11.85;87.34
64918;HTU21D;52176;44.858;38.372;2022-11-20T07:45:30;11.87;87.24
64918;HTU21D;52176;44.858;38.372;2022-11-20T07:47:55;11.88;87.27
64918;HTU21D;52176;44.858;38.372;2022-11-20T07:50:21;11.91;87.32
64918;HTU21D;52176;44.858;38.372;2022-11-20T07:52:47;11.92;87.28
64918;HTU21D;52176;44.858;38.372;2022-11-20T07:55:13;11.94;87.22
64918;HTU21D;52176;44.858;38.372;2022-11-20T07:57:39;11.96;87.44
64918;HTU21D;52176;44.858;38.372;2022-11-20T08:00:05;11.97;87.40
64918;HTU21D;52176;44.858;38.372;2022-11-20T08:02:38;11.99;87.46
64918;HTU21D;52176;44.858;38.372;2022-11-20T08:05:04;12.00;87.63
64918;HTU21D;52176;44.858;38.372;2022-11-20T08:07:41;12.03;87.73
64918;HTU21D;52176;44.858;38.372;2022-11-20T08:10:07;12.07;87.63
64918;HTU21D;52176;44.858;38.372;2022-11-20T08:12:33;12.17;87.65
64918;HTU21D;52176;44.858;38.372;2022-11-20T08:15:18;12.27;87.65
64918;HTU21D;52176;44.858;38.372;2022-11-20T08:17:44;12.35;87.67
64918;HTU21D;52176;44.858;38.372;2022-11-20T08:20:10;12.44;87.55
64918;HTU21D;52176;44.858;38.372;2022-11-20T08:22:36;12.51;87.35
64918;HTU21D;52176;44.858;38.372;2022-11-20T08:25:01;12.60;87.42
64918;HTU21D;52176;44.858;38.372;2022-11-20T08:27:27;12.67;87.19
64918;HTU21D;52176;44.858;38.372;2022-11-20T08:29:53;12.79;87.16
64918;HTU21D;52176;44.858;38.372;2022-11-20T08:32:19;12.91;87.20
64918;HTU21D;52176;44.858;38.372;2022-11-20T08:34:44;13.01;87.48
64918;HTU21D;52176;44.858;38.372;2022-11-20T08:37:11;13.08;87.35
64918;HTU21D;52176;44.858;38.372;2022-11-20T08:39:37;13.18;88.02
64918;HTU21D;52176;44.858;38.372;2022-11-20T08:42:06;13.25;87.34
64918;HTU21D;52176;44.858;38.372;2022-11-20T08:44:32;13.36;87.14
64918;HTU21D;52176;44.858;38.372;2022-11-20T08:46:57;13.47;87.19
64918;HTU21D;52176;44.858;38.372;2022-11-20T08:49:23;13.58;87.35
64918;HTU21D;52176;44.858;38.372;2022-11-20T08:51:49;13.66;87.18
64918;HTU21D;52176;44.858;38.372;2022-11-20T08:54:19;13.81;87.07
64918;HTU21D;52176;44.858;38.372;2022-11-20T08:56:47;13.96;86.79
64918;HTU21D;52176;44.858;38.372;2022-11-20T08:59:13;14.11;86.76
64918;HTU21D;52176;44.858;38.372;2022-11-20T09:01:38;14.28;86.73
64918;HTU21D;52176;44.858;38.372;2022-11-20T09:04:05;14.42;86.41
64918;HTU21D;52176;44.858;38.372;2022-11-20T09:06:30;14.60;86.12
64918;HTU21D;52176;44.858;38.372;2022-11-20T09:08:56;14.89;86.06
64918;HTU21D;52176;44.858;38.372;2022-11-20T09:11:22;15.43;85.67
64918;HTU21D;52176;44.858;38.372;2022-11-20T09:13:48;16.02;84.79
64918;HTU21D;52176;44.858;38.372;2022-11-20T09:16:14;16.62;83.58
64918;HTU21D;52176;44.858;38.372;2022-11-20T09:18:40;17.35;82.52
64918;HTU21D;52176;44.858;38.372;2022-11-20T09:21:06;17.94;81.33
64918;HTU21D;52176;44.858;38.372;2022-11-20T09:23:33;18.42;80.75
64918;HTU21D;52176;44.858;38.372;2022-11-20T09:26:06;18.98;80.01
64918;HTU21D;52176;44.858;38.372;2022-11-20T09:28:32;19.44;79.23
64918;HTU21D;52176;44.858;38.372;2022-11-20T09:30:59;19.51;78.68
64918;HTU21D;52176;44.858;38.372;2022-11-20T09:33:25;19.38;78.46
64918;HTU21D;52176;44.858;38.372;2022-11-20T09:35:51;19.44;74.37
64918;HTU21D;52176;44.858;38.372;2022-11-20T09:38:16;19.71;73.22
64918;HTU21D;52176;44.858;38.372;2022-11-20T09:40:51;20.07;70.69
64918;HTU21D;52176;44.858;38.372;2022-11-20T09:43:46;20.40;68.83
64918;HTU21D;52176;44.858;38.372;2022-11-20T09:56:41;20.29;66.38
64918;HTU21D;52176;44.858;38.372;2022-11-20T09:59:12;20.37;66.91
64918;HTU21D;52176;44.858;38.372;2022-11-20T10:01:39;20.51;63.98
64918;HTU21D;52176;44.858;38.372;2022-11-20T10:06:39;20.77;61.02
64918;HTU21D;52176;44.858;38.372;2022-11-20T10:14:13;21.11;61.99
64918;HTU21D;52176;44.858;38.372;2022-11-20T10:16:44;21.24;61.35
64918;HTU21D;52176;44.858;38.372;2022-11-20T10:19:22;21.30;60.25
64918;HTU21D;52176;44.858;38.372;2022-11-20T10:29:22;21.18;61.09
64918;HTU21D;52176;44.858;38.372;2022-11-20T10:32:11;21.22;60.44
64918;HTU21D;52176;44.858;38.372;2022-11-20T10:34:59;21.27;58.81
64918;HTU21D;52176;44.858;38.372;2022-11-20T10:37:26;21.23;59.17
64918;HTU21D;52176;44.858;38.372;2022-11-20T10:47:43;21.10;59.70
64918;HTU21D;52176;44.858;38.372;2022-11-20T10:50:11;21.07;60.16
64918;HTU21D;52176;44.858;38.372;2022-11-20T10:52:45;21.02;60.36
64918;HTU21D;52176;44.858;38.372;2022-11-20T11:00:19;20.89;61.05
64918;HTU21D;52176;44.858;38.372;2022-11-20T11:05:17;20.86;59.00
64918;HTU21D;52176;44.858;38.372;2022-11-20T11:07:46;20.87;59.15
64918;HTU21D;52176;44.858;38.372;2022-11-20T11:10:15;20.83;59.67
64918;HTU21D;52176;44.858;38.372;2022-11-20T11:12:46;20.76;59.08
64918;HTU21D;52176;44.858;38.372;2022-11-20T11:15:27;20.72;60.09
64918;HTU21D;52176;44.858;38.372;2022-11-20T11:17:53;20.64;58.74
64918;HTU21D;52176;44.858;38.372;2022-11-20T11:20:20;20.60;59.74
64918;HTU21D;52176;44.858;38.372;2022-11-20T11:22:47;20.54;58.45
64918;HTU21D;52176;44.858;38.372;2022-11-20T11:27:46;20.51;59.79
64918;HTU21D;52176;44.858;38.372;2022-11-20T11:30:14;20.51;60.62
64918;HTU21D;52176;44.858;38.372;2022-11-20T11:32:40;20.53;59.64
64918;HTU21D;52176;44.858;38.372;2022-11-20T11:35:06;20.56;59.89
64918;HTU21D;52176;44.858;38.372;2022-11-20T11:37:37;20.59;60.04
64918;HTU21D;52176;44.858;38.372;2022-11-20T11:40:04;20.61;60.30
64918;HTU21D;52176;44.858;38.372;2022-11-20T11:42:30;20.64;58.77
64918;HTU21D;52176;44.858;38.372;2022-11-20T11:44:57;20.69;58.54
64918;HTU21D;52176;44.858;38.372;2022-11-20T11:47:35;20.73;59.67
64918;HTU21D;52176;44.858;38.372;2022-11-20T11:52:27;20.81;59.00
64918;HTU21D;52176;44.858;38.372;2022-11-20T11:54:57;20.86;58.98
64918;HTU21D;52176;44.858;38.372;2022-11-20T12:00:09;20.95;58.96
64918;HTU21D;52176;44.858;38.372;2022-11-20T12:07:47;20.95;59.74
64918;HTU21D;52176;44.858;38.372;2022-11-20T12:10:24;20.92;59.16
64918;HTU21D;52176;44.858;38.372;2022-11-20T12:12:55;20.88;59.39
64918;HTU21D;52176;44.858;38.372;2022-11-20T12:15:29;20.85;59.46
64918;HTU21D;52176;44.858;38.372;2022-11-20T12:17:55;20.79;59.27
64918;HTU21D;52176;44.858;38.372;2022-11-20T12:20:22;20.75;59.62
64918;HTU21D;52176;44.858;38.372;2022-11-20T12:25:18;20.66;58.70
64918;HTU21D;52176;44.858;38.372;2022-11-20T12:30:23;20.60;56.63
64918;HTU21D;52176;44.858;38.372;2022-11-20T12:35:39;20.58;58.09
64918;HTU21D;52176;44.858;38.372;2022-11-20T12:40:52;20.55;57.54
64918;HTU21D;52176;44.858;38.372;2022-11-20T12:43:22;20.53;58.03
64918;HTU21D;52176;44.858;38.372;2022-11-20T12:48:52;20.49;58.10
64918;HTU21D;52176;44.858;38.372;2022-11-20T12:51:34;20.50;58.72
64918;HTU21D;52176;44.858;38.372;2022-11-20T13:06:54;20.27;58.93
64918;HTU21D;52176;44.858;38.372;2022-11-20T13:09:20;20.21;59.00
64918;HTU21D;52176;44.858;38.372;2022-11-20T13:19:41;19.85;60.76
64918;HTU21D;52176;44.858;38.372;2022-11-20T13:22:11;19.75;60.23
64918;HTU21D;52176;44.858;38.372;2022-11-20T13:24:37;19.69;60.40
64918;HTU21D;52176;44.858;38.372;2022-11-20T13:27:21;19.60;60.31
64918;HTU21D;52176;44.858;38.372;2022-11-20T13:32:33;19.41;61.23
64918;HTU21D;52176;44.858;38.372;2022-11-20T13:35:00;19.28;60.76
64918;HTU21D;52176;44.858;38.372;2022-11-20T13:37:36;19.20;61.28
64918;HTU21D;52176;44.858;38.372;2022-11-20T13:42:35;19.02;61.63
64918;HTU21D;52176;44.858;38.372;2022-11-20T13:45:08;18.94;62.26
64918;HTU21D;52176;44.858;38.372;2022-11-20T13:47:34;18.83;62.50
64918;HTU21D;52176;44.858;38.372;2022-11-20T13:50:02;18.73;62.67
64918;HTU21D;52176;44.858;38.372;2022-11-20T13:58:05;18.35;63.57
64918;HTU21D;52176;44.858;38.372;2022-11-20T14:00:41;18.21;63.58
64918;HTU21D;52176;44.858;38.372;2022-11-20T14:03:09;18.09;64.03
64918;HTU21D;52176;44.858;38.372;2022-11-20T14:05:40;17.98;64.25
64918;HTU21D;52176;44.858;38.372;2022-11-20T14:08:17;17.87;64.34
64918;HTU21D;52176;44.858;38.372;2022-11-20T14:10:45;17.75;64.53
64918;HTU21D;52176;44.858;38.372;2022-11-20T14:13:19;17.65;64.70
64918;HTU21D;52176;44.858;38.372;2022-11-20T14:15:45;17.55;64.89
64918;HTU21D;52176;44.858;38.372;2022-11-20T14:18:15;17.49;65.01
64918;HTU21D;52176;44.858;38.372;2022-11-20T14:20:44;17.41;64.96
64918;HTU21D;52176;44.858;38.372;2022-11-20T14:23:10;17.37;65.13
64918;HTU21D;52176;44.858;38.372;2022-11-20T14:25:36;17.34;65.18
64918;HTU21D;52176;44.858;38.372;2022-11-20T14:28:02;17.29;65.03
64918;HTU21D;52176;44.858;38.372;2022-11-20T14:30:35;17.24;65.17
64918;HTU21D;52176;44.858;38.372;2022-11-20T14:33:02;17.22;65.34
64918;HTU21D;52176;44.858;38.372;2022-11-20T14:35:34;17.20;65.25
64918;HTU21D;52176;44.858;38.372;2022-11-20T14:38:00;17.19;65.35
64918;HTU21D;52176;44.858;38.372;2022-11-20T14:40:30;17.18;65.40
64918;HTU21D;52176;44.858;38.372;2022-11-20T14:42:57;17.17;65.43
64918;HTU21D;52176;44.858;38.372;2022-11-20T14:45:23;17.16;65.48
64918;HTU21D;52176;44.858;38.372;2022-11-20T14:47:50;17.11;65.54
64918;HTU21D;52176;44.858;38.372;2022-11-20T14:50:24;17.09;65.58
64918;HTU21D;52176;44.858;38.372;2022-11-20T14:52:54;17.05;65.37
64918;HTU21D;52176;44.858;38.372;2022-11-20T14:55:33;17.06;65.42
64918;HTU21D;52176;44.858;38.372;2022-11-20T14:58:01;17.10;65.32
64918;HTU21D;52176;44.858;38.372;2022-11-20T15:00:27;17.13;65.24
64918;HTU21D;52176;44.858;38.372;2022-11-20T15:02:53;17.14;64.85
64918;HTU21D;52176;44.858;38.372;2022-11-20T15:05:20;17.16;65.14
64918;HTU21D;52176;44.858;38.372;2022-11-20T15:07:48;17.18;65.14
64918;HTU21D;52176;44.858;38.372;2022-11-20T15:12:54;17.19;65.21
64918;HTU21D;52176;44.858;38.372;2022-11-20T15:15:25;17.17;65.32
64918;HTU21D;52176;44.858;38.372;2022-11-20T15:17:53;17.17;65.43
64918;HTU21D;52176;44.858;38.372;2022-11-20T15:20:19;17.13;65.53
64918;HTU21D;52176;44.858;38.372;2022-11-20T15:22:46;17.08;65.64
64918;HTU21D;52176;44.858;38.372;2022-11-20T15:25:15;17.04;65.80
64918;HTU21D;52176;44.858;38.372;2022-11-20T15:27:42;17.00;65.98
64918;HTU21D;52176;44.858;38.372;2022-11-20T15:30:12;16.92;66.16
64918;HTU21D;52176;44.858;38.372;2022-11-20T15:32:38;16.82;66.33
64918;HTU21D;52176;44.858;38.372;2022-11-20T15:35:05;16.72;66.53
64918;HTU21D;52176;44.858;38.372;2022-11-20T15:37:31;16.61;66.72
64918;HTU21D;52176;44.858;38.372;2022-11-20T15:39:56;16.55;66.90
64918;HTU21D;52176;44.858;38.372;2022-11-20T15:42:22;16.47;66.99
64918;HTU21D;52176;44.858;38.372;2022-11-20T15:44:48;16.39;67.12
64918;HTU21D;52176;44.858;38.372;2022-11-20T15:47:14;16.31;67.33
64918;HTU21D;52176;44.858;38.372;2022-11-20T15:49:39;16.24;67.44
64918;HTU21D;52176;44.858;38.372;2022-11-20T15:52:05;16.16;67.62
64918;HTU21D;52176;44.858;38.372;2022-11-20T15:54:31;16.08;67.75
64918;HTU21D;52176;44.858;38.372;2022-11-20T15:56:57;16.00;67.91
64918;HTU21D;52176;44.858;38.372;2022-11-20T15:59:23;15.95;68.03
64918;HTU21D;52176;44.858;38.372;2022-11-20T16:01:49;15.90;68.15
64918;HTU21D;52176;44.858;38.372;2022-11-20T16:04:15;15.85;68.21
64918;HTU21D;52176;44.858;38.372;2022-11-20T16:06:41;15.83;68.28
64918;HTU21D;52176;44.858;38.372;2022-11-20T16:09:07;15.78;68.35
64918;HTU21D;52176;44.858;38.372;2022-11-20T16:11:34;15.76;68.42
64918;HTU21D;52176;44.858;38.372;2022-11-20T16:14:02;15.72;68.51
64918;HTU21D;52176;44.858;38.372;2022-11-20T16:16:47;15.73;68.57
64918;HTU21D;52176;44.858;38.372;2022-11-20T16:19:13;15.73;68.55
64918;HTU21D;52176;44.858;38.372;2022-11-20T16:21:39;15.73;68.57
64918;HTU21D;52176;44.858;38.372;2022-11-20T16:24:07;15.69;68.65
64918;HTU21D;52176;44.858;38.372;2022-11-20T16:26:35;15.69;68.71
64918;HTU21D;52176;44.858;38.372;2022-11-20T16:29:01;15.67;68.78
64918;HTU21D;52176;44.858;38.372;2022-11-20T16:31:28;15.67;68.78
64918;HTU21D;52176;44.858;38.372;2022-11-20T16:33:55;15.66;68.84
64918;HTU21D;52176;44.858;38.372;2022-11-20T16:36:23;15.61;68.91
64918;HTU21D;52176;44.858;38.372;2022-11-20T16:38:56;15.60;69.00
64918;HTU21D;52176;44.858;38.372;2022-11-20T16:41:22;15.60;69.05
64918;HTU21D;52176;44.858;38.372;2022-11-20T16:43:49;15.62;69.04
64918;HTU21D;52176;44.858;38.372;2022-11-20T16:46:15;15.67;69.02
64918;HTU21D;52176;44.858;38.372;2022-11-20T16:48:42;15.70;68.94
64918;HTU21D;52176;44.858;38.372;2022-11-20T16:51:08;15.73;68.93
64918;HTU21D;52176;44.858;38.372;2022-11-20T16:53:35;15.76;68.92